createdAt,value
2018-05-15T00:00:40.770Z,101100.15
2018-05-15T00:03:06.557Z,101099.41
2018-05-15T00:05:32.350Z,101101.53
2018-05-15T00:07:58.158Z,101097.61
2018-05-15T00:10:23.958Z,101101.73
2018-05-15T00:12:49.738Z,101099.44
2018-05-15T00:15:15.554Z,101100.91
2018-05-15T00:17:41.339Z,101099.08
2018-05-15T00:20:07.133Z,101097.04
2018-05-15T00:22:32.933Z,101091.66
2018-05-15T00:24:58.758Z,101095.86
2018-05-15T00:27:24.540Z,101098.49
2018-05-15T00:29:50.313Z,101094.02
2018-05-15T00:32:16.131Z,101094.83
2018-05-15T00:34:41.923Z,101101.70
2018-05-15T00:37:07.730Z,101100.74
2018-05-15T00:39:33.525Z,101093.70
2018-05-15T00:41:59.425Z,101107.39
2018-05-15T00:44:25.218Z,101102.67
2018-05-15T00:46:51.058Z,101106.34
2018-05-15T00:49:16.850Z,101104.58
2018-05-15T00:51:42.627Z,101104.58
2018-05-15T00:54:08.642Z,101106.88
2018-05-15T00:56:34.453Z,101104.75
2018-05-15T00:59:00.237Z,101098.53
2018-05-15T01:01:26.398Z,101097.63
2018-05-15T01:03:52.178Z,101099.59
2018-05-15T01:06:17.973Z,101101.98
2018-05-15T01:08:43.768Z,101100.53
2018-05-15T01:11:09.562Z,101102.25
2018-05-15T01:13:35.350Z,101097.90
2018-05-15T01:16:01.133Z,101101.59
2018-05-15T01:18:26.923Z,101099.77
2018-05-15T01:20:52.701Z,101106.78
2018-05-15T01:23:18.582Z,101109.00
2018-05-15T01:25:44.366Z,101108.88
2018-05-15T01:28:10.186Z,101109.67
2018-05-15T01:30:35.969Z,101104.91
2018-05-15T01:33:01.770Z,101109.63
2018-05-15T01:35:27.586Z,101111.98
2018-05-15T01:37:53.378Z,101109.97
2018-05-15T01:40:19.162Z,101110.69
2018-05-15T01:42:44.966Z,101111.03
2018-05-15T01:45:10.743Z,101116.05
2018-05-15T01:47:36.536Z,101116.32
2018-05-15T01:50:02.349Z,101110.20
2018-05-15T01:52:28.133Z,101113.48
2018-05-15T01:54:53.928Z,101114.89
2018-05-15T01:57:19.720Z,101116.44
2018-05-15T01:59:45.506Z,101115.37
2018-05-15T02:02:11.301Z,101120.91
2018-05-15T02:04:37.105Z,101112.82
2018-05-15T02:07:02.938Z,101112.03
2018-05-15T02:09:28.717Z,101104.59
2018-05-15T02:11:54.501Z,101101.64
2018-05-15T02:14:20.289Z,101101.82
2018-05-15T02:16:46.071Z,101098.77
2018-05-15T02:19:11.867Z,101097.78
2018-05-15T02:21:37.644Z,101096.13
2018-05-15T02:24:03.453Z,101093.63
2018-05-15T02:26:29.225Z,101093.47
2018-05-15T02:28:55.024Z,101092.86
2018-05-15T02:31:20.825Z,101105.78
2018-05-15T02:33:46.605Z,101102.94
2018-05-15T02:36:12.398Z,101100.24
2018-05-15T02:38:45.326Z,101088.75
2018-05-15T02:41:11.140Z,101098.05
2018-05-15T02:43:36.927Z,101090.66
2018-05-15T02:46:02.757Z,101089.37
2018-05-15T02:48:28.812Z,101091.13
2018-05-15T02:50:54.601Z,101083.96
2018-05-15T02:53:20.375Z,101080.11
2018-05-15T02:55:46.190Z,101086.05
2018-05-15T02:58:11.972Z,101082.45
2018-05-15T03:00:37.824Z,101082.34
2018-05-15T03:03:03.605Z,101085.80
2018-05-15T03:05:29.404Z,101082.13
2018-05-15T03:07:55.180Z,101078.81
2018-05-15T03:10:21.006Z,101082.23
2018-05-15T03:12:46.798Z,101080.69
2018-05-15T03:15:12.583Z,101082.45
2018-05-15T03:17:38.402Z,101082.84
2018-05-15T03:20:04.267Z,101082.62
2018-05-15T03:22:30.014Z,101086.84
2018-05-15T03:24:55.804Z,101079.03
2018-05-15T03:27:21.584Z,101074.05
2018-05-15T03:29:47.369Z,101081.36
2018-05-15T03:32:13.182Z,101082.51
2018-05-15T03:34:38.962Z,101091.97
2018-05-15T03:37:04.754Z,101093.77
2018-05-15T03:39:30.562Z,101089.20
2018-05-15T03:41:56.347Z,101089.80
2018-05-15T03:44:22.166Z,101094.23
2018-05-15T03:46:47.947Z,101093.84
2018-05-15T03:49:13.737Z,101102.28
2018-05-15T03:51:39.525Z,101100.12
2018-05-15T03:54:05.302Z,101099.52
2018-05-15T03:56:31.114Z,101094.03
2018-05-15T03:58:56.900Z,101091.97
2018-05-15T04:01:35.394Z,101089.97
2018-05-15T04:04:13.623Z,101093.11
2018-05-15T04:06:51.907Z,101093.45
2018-05-15T04:09:17.722Z,101091.34
2018-05-15T04:11:43.647Z,101097.84
2018-05-15T04:14:09.664Z,101098.09
2018-05-15T04:16:35.451Z,101089.46
2018-05-15T04:19:01.241Z,101092.67
2018-05-15T04:21:27.086Z,101094.02
2018-05-15T04:23:52.861Z,101089.65
2018-05-15T04:26:18.655Z,101098.48
2018-05-15T04:28:44.521Z,101082.08
2018-05-15T04:31:10.266Z,101070.44
2018-05-15T04:33:36.053Z,101083.91
2018-05-15T04:36:01.848Z,101075.55
2018-05-15T04:38:27.638Z,101078.23
2018-05-15T04:40:53.452Z,101086.73
2018-05-15T04:43:19.367Z,101088.06
2018-05-15T04:45:45.082Z,101082.83
2018-05-15T04:48:10.871Z,101083.89
2018-05-15T04:50:36.657Z,101086.41
2018-05-15T04:53:02.478Z,101088.83
2018-05-15T04:55:28.261Z,101090.34
2018-05-15T04:57:54.287Z,101095.13
2018-05-15T05:00:20.105Z,101097.97
2018-05-15T05:02:45.877Z,101099.38
2018-05-15T05:05:11.666Z,101096.96
2018-05-15T05:07:37.494Z,101096.20
2018-05-15T05:10:03.298Z,101100.56
2018-05-15T05:12:29.073Z,101101.13
2018-05-15T05:14:54.885Z,101108.85
2018-05-15T05:17:20.682Z,101100.42
2018-05-15T05:19:46.476Z,101102.76
2018-05-15T05:22:12.303Z,101116.10
2018-05-15T05:24:38.083Z,101120.22
2018-05-15T05:27:03.961Z,101126.70
2018-05-15T05:29:29.721Z,101119.34
2018-05-15T05:31:55.514Z,101123.44
2018-05-15T05:34:21.292Z,101130.03
2018-05-15T05:36:47.087Z,101133.10
2018-05-15T05:39:12.873Z,101136.45
2018-05-15T05:41:38.693Z,101129.70
2018-05-15T05:44:04.480Z,101128.66
2018-05-15T05:46:30.345Z,101135.28
2018-05-15T05:48:56.091Z,101128.84
2018-05-15T05:51:21.907Z,101138.42
2018-05-15T05:53:47.698Z,101135.28
2018-05-15T05:56:13.513Z,101134.66
2018-05-15T05:58:39.556Z,101139.97
2018-05-15T06:01:05.386Z,101136.42
2018-05-15T06:03:31.166Z,101136.05
2018-05-15T06:05:56.959Z,101137.05
2018-05-15T06:08:22.941Z,101139.25
2018-05-15T06:10:48.735Z,101140.25
2018-05-15T06:13:14.509Z,101141.59
2018-05-15T06:15:40.317Z,101130.22
2018-05-15T06:18:06.101Z,101138.67
2018-05-15T06:20:31.944Z,101137.08
2018-05-15T06:22:57.952Z,101141.91
2018-05-15T06:25:23.749Z,101132.88
2018-05-15T06:27:49.543Z,101137.95
2018-05-15T06:30:15.361Z,101137.42
2018-05-15T06:32:41.156Z,101138.63
2018-05-15T06:35:06.994Z,101135.45
2018-05-15T06:37:32.813Z,101132.20
2018-05-15T06:39:58.585Z,101133.87
2018-05-15T06:42:24.387Z,101137.14
2018-05-15T06:44:50.281Z,101139.25
2018-05-15T06:47:16.126Z,101137.41
2018-05-15T06:49:42.018Z,101139.12
2018-05-15T06:52:08.351Z,101141.14
2018-05-15T06:54:34.135Z,101137.43
2018-05-15T06:57:00.067Z,101144.28
2018-05-15T06:59:25.896Z,101134.14
2018-05-15T07:01:51.753Z,101136.76
2018-05-15T07:04:17.748Z,101140.31
2018-05-15T07:06:43.561Z,101140.77
2018-05-15T07:09:09.453Z,101135.60
2018-05-15T07:11:35.256Z,101131.00
2018-05-15T07:14:01.248Z,101126.81
2018-05-15T07:16:27.019Z,101131.51
2018-05-15T07:18:52.805Z,101138.49
2018-05-15T07:21:18.910Z,101134.20
2018-05-15T07:23:44.693Z,101142.80
2018-05-15T07:26:10.651Z,101139.66
2018-05-15T07:28:36.456Z,101141.75
2018-05-15T07:31:02.459Z,101135.14
2018-05-15T07:33:28.247Z,101139.80
2018-05-15T07:35:54.055Z,101137.16
2018-05-15T07:38:19.899Z,101138.83
2018-05-15T07:40:45.692Z,101138.34
2018-05-15T07:43:11.582Z,101136.67
2018-05-15T07:45:37.713Z,101134.03
2018-05-15T07:48:03.805Z,101136.40
2018-05-15T07:50:29.594Z,101138.70
2018-05-15T07:52:57.344Z,101144.45
2018-05-15T07:55:23.231Z,101142.11
2018-05-15T07:57:49.068Z,101142.88
2018-05-15T08:00:14.871Z,101147.59
2018-05-15T08:02:40.692Z,101151.27
2018-05-15T08:05:06.469Z,101149.05
2018-05-15T08:07:32.574Z,101151.34
2018-05-15T08:09:58.390Z,101147.10
2018-05-15T08:12:24.268Z,101150.88
2018-05-15T08:14:50.049Z,101143.16
2018-05-15T08:17:15.860Z,101144.70
2018-05-15T08:19:41.646Z,101141.86
2018-05-15T08:22:07.454Z,101137.77
2018-05-15T08:24:33.409Z,101139.55
2018-05-15T08:26:59.197Z,101137.53
2018-05-15T08:29:24.993Z,101137.38
2018-05-15T08:31:51.047Z,101143.59
2018-05-15T08:34:16.846Z,101138.97
2018-05-15T08:36:42.664Z,101141.81
2018-05-15T08:39:08.466Z,101143.11
2018-05-15T08:41:34.266Z,101136.19
2018-05-15T08:44:00.079Z,101144.64
2018-05-15T08:46:25.893Z,101141.19
2018-05-15T08:48:51.666Z,101147.72
2018-05-15T08:51:17.478Z,101149.23
2018-05-15T08:53:43.325Z,101147.38
2018-05-15T08:56:09.130Z,101150.66
2018-05-15T08:58:34.941Z,101148.55
2018-05-15T09:01:00.745Z,101143.56
2018-05-15T09:03:26.564Z,101143.58
2018-05-15T09:05:52.366Z,101143.99
2018-05-15T09:08:18.348Z,101144.37
2018-05-15T09:10:44.133Z,101144.64
2018-05-15T09:13:09.925Z,101144.48
2018-05-15T09:15:35.748Z,101140.20
2018-05-15T09:18:01.679Z,101142.61
2018-05-15T09:20:27.497Z,101143.31
2018-05-15T09:22:53.306Z,101149.41
2018-05-15T09:25:19.102Z,101141.02
2018-05-15T09:27:44.917Z,101140.87
2018-05-15T09:30:10.693Z,101142.33
2018-05-15T09:32:36.474Z,101145.06
2018-05-15T09:35:02.553Z,101136.16
2018-05-15T09:37:29.192Z,101140.64
2018-05-15T09:39:55.101Z,101119.67
2018-05-15T09:42:20.913Z,101141.22
2018-05-15T09:44:46.743Z,101141.86
2018-05-15T09:47:12.586Z,101135.75
2018-05-15T09:49:38.751Z,101139.67
2018-05-15T09:52:04.542Z,101141.64
2018-05-15T09:54:30.333Z,101140.09
2018-05-15T09:56:56.139Z,101142.09
2018-05-15T09:59:21.950Z,101143.48
2018-05-15T10:01:48.601Z,101138.02
2018-05-15T10:04:14.984Z,101142.30
2018-05-15T10:06:42.221Z,101140.28
2018-05-15T10:09:08.540Z,101139.86
2018-05-15T10:11:34.854Z,101133.94
2018-05-15T10:14:01.347Z,101139.20
2018-05-15T10:16:27.575Z,101133.78
2018-05-15T10:18:54.287Z,101132.36
2018-05-15T10:21:20.657Z,101134.63
2018-05-15T10:23:46.818Z,101129.80
2018-05-15T10:26:13.019Z,101130.03
2018-05-15T10:28:38.893Z,101134.48
2018-05-15T10:31:04.715Z,101119.30
2018-05-15T10:33:30.510Z,101117.36
2018-05-15T10:35:56.352Z,101117.79
2018-05-15T10:38:22.140Z,101119.82
2018-05-15T10:40:47.939Z,101114.16
2018-05-15T10:43:13.740Z,101112.22
2018-05-15T10:45:39.538Z,101110.19
2018-05-15T10:48:05.350Z,101112.23
2018-05-15T10:50:31.153Z,101115.30
2018-05-15T10:52:56.941Z,101117.09
2018-05-15T10:55:22.726Z,101111.63
2018-05-15T10:57:49.709Z,101106.70
2018-05-15T11:00:16.615Z,101100.28
2018-05-15T11:02:42.546Z,101107.41
2018-05-15T11:05:08.370Z,101110.02
2018-05-15T11:07:34.187Z,101112.25
2018-05-15T11:09:59.989Z,101104.59
2018-05-15T11:12:25.802Z,101097.58
2018-05-15T11:14:51.596Z,101092.97
2018-05-15T11:17:17.370Z,101098.22
2018-05-15T11:19:55.665Z,101089.95
2018-05-15T11:22:33.790Z,101102.37
2018-05-15T11:24:59.596Z,101098.95
2018-05-15T11:27:25.393Z,101095.61
2018-05-15T11:29:51.189Z,101085.35
2018-05-15T11:32:16.993Z,101088.41
2018-05-15T11:34:42.823Z,101096.34
2018-05-15T11:37:08.617Z,101086.12
2018-05-15T11:39:34.407Z,101088.47
2018-05-15T11:42:00.213Z,101090.13
2018-05-15T11:44:26.002Z,101092.02
2018-05-15T11:46:51.802Z,101088.27
2018-05-15T11:49:18.628Z,101087.16
2018-05-15T11:51:43.986Z,101079.97
2018-05-15T11:54:09.245Z,101086.39
2018-05-15T11:56:35.107Z,101079.34
2018-05-15T11:59:00.836Z,101083.72
2018-05-15T12:01:26.654Z,101081.05
2018-05-15T12:03:52.658Z,101078.27
2018-05-15T12:06:18.381Z,101077.80
2018-05-15T12:08:44.179Z,101077.63
2018-05-15T12:11:09.999Z,101079.70
2018-05-15T12:13:35.813Z,101076.23
2018-05-15T12:16:01.692Z,101076.34
2018-05-15T12:18:27.419Z,101071.89
2018-05-15T12:20:53.213Z,101069.62
2018-05-15T12:23:19.265Z,101072.77
2018-05-15T12:25:45.065Z,101071.58
2018-05-15T12:28:10.866Z,101063.67
2018-05-15T12:30:36.798Z,101061.07
2018-05-15T12:33:02.596Z,101061.61
2018-05-15T12:35:28.385Z,101065.81
2018-05-15T12:37:54.185Z,101060.66
2018-05-15T12:40:19.974Z,101062.03
2018-05-15T12:42:45.757Z,101061.11
2018-05-15T12:45:11.570Z,101062.31
2018-05-15T12:47:37.450Z,101064.96
2018-05-15T12:50:03.251Z,101055.16
2018-05-15T12:52:29.033Z,101055.52
2018-05-15T12:54:54.827Z,101053.59
2018-05-15T12:57:20.962Z,101054.90
2018-05-15T12:59:46.746Z,101050.38
2018-05-15T13:02:12.529Z,101047.09
2018-05-15T13:04:38.346Z,101047.88
2018-05-15T13:07:04.138Z,101042.79
2018-05-15T13:09:29.945Z,101042.78
2018-05-15T13:11:55.737Z,101034.16
2018-05-15T13:14:21.539Z,101034.08
2018-05-15T13:16:47.354Z,101033.77
2018-05-15T13:19:13.137Z,101031.17
2018-05-15T13:21:38.933Z,101032.41
2018-05-15T13:24:04.736Z,101029.03
2018-05-15T13:26:30.514Z,101028.17
2018-05-15T13:28:56.285Z,101026.47
2018-05-15T13:31:22.077Z,101021.76
2018-05-15T13:33:47.846Z,101019.47
2018-05-15T13:36:13.621Z,101019.98
2018-05-15T13:38:39.674Z,101015.29
2018-05-15T13:41:05.471Z,101014.41
2018-05-15T13:43:31.248Z,101008.42
2018-05-15T13:45:57.044Z,101009.70
2018-05-15T13:48:22.854Z,101001.55
2018-05-15T13:50:48.641Z,100996.38
2018-05-15T13:53:14.436Z,101000.26
2018-05-15T13:55:40.251Z,100999.41
2018-05-15T13:58:06.034Z,100995.12
2018-05-15T14:00:31.821Z,100996.00
2018-05-15T14:02:57.617Z,100997.70
2018-05-15T14:05:23.406Z,100993.84
2018-05-15T14:07:49.218Z,100995.55
2018-05-15T14:10:15.014Z,100993.00
2018-05-15T14:12:40.797Z,100989.10
2018-05-15T14:15:06.944Z,100972.37
2018-05-15T14:17:32.768Z,100984.78
2018-05-15T14:19:58.554Z,100982.67
2018-05-15T14:22:24.362Z,100975.38
2018-05-15T14:24:50.189Z,100979.66
2018-05-15T14:27:15.930Z,100976.23
2018-05-15T14:29:41.734Z,100976.13
2018-05-15T14:32:07.524Z,100974.43
2018-05-15T14:34:33.308Z,100971.84
2018-05-15T14:36:59.097Z,100968.02
2018-05-15T14:39:24.892Z,100965.44
2018-05-15T14:42:03.018Z,100970.52
2018-05-15T14:44:28.809Z,100960.24
2018-05-15T14:46:54.594Z,100958.59
2018-05-15T14:49:20.404Z,100952.91
2018-05-15T14:51:46.194Z,100964.91
2018-05-15T14:54:11.987Z,100963.53
2018-05-15T14:56:37.825Z,100962.05
2018-05-15T14:59:03.605Z,100954.59
2018-05-15T15:01:30.392Z,100956.59
2018-05-15T15:03:56.201Z,100961.17
2018-05-15T15:06:21.998Z,100959.83
2018-05-15T15:08:47.838Z,100953.64
2018-05-15T15:11:13.650Z,100952.35
2018-05-15T15:13:39.613Z,100952.91
2018-05-15T15:16:05.520Z,100941.59
2018-05-15T15:18:31.396Z,100943.74
2018-05-15T15:20:57.224Z,100946.76
2018-05-15T15:23:23.006Z,100946.77
2018-05-15T15:25:48.821Z,100949.48
2018-05-15T15:28:14.607Z,100949.00
2018-05-15T15:30:40.521Z,100951.34
2018-05-15T15:33:06.329Z,100950.43
2018-05-15T15:35:32.119Z,100940.77
2018-05-15T15:37:57.917Z,100941.43
2018-05-15T15:40:23.704Z,100942.61
2018-05-15T15:42:49.697Z,100944.85
2018-05-15T15:45:15.518Z,100941.14
2018-05-15T15:47:41.530Z,100941.02
2018-05-15T15:50:07.345Z,100941.75
2018-05-15T15:52:33.664Z,100940.05
2018-05-15T15:54:59.458Z,100934.88
2018-05-15T15:57:25.233Z,100938.14
2018-05-15T15:59:51.054Z,100932.36
2018-05-15T16:02:16.850Z,100924.80
2018-05-15T16:04:42.629Z,100929.59
2018-05-15T16:07:08.416Z,100930.12
2018-05-15T16:09:34.310Z,100916.74
2018-05-15T16:12:00.497Z,100917.48
2018-05-15T16:14:26.285Z,100925.03
2018-05-15T16:16:52.613Z,100923.32
2018-05-15T16:19:18.400Z,100917.77
2018-05-15T16:21:44.252Z,100925.77
2018-05-15T16:24:10.077Z,100916.41
2018-05-15T16:26:35.901Z,100918.30
2018-05-15T16:29:01.695Z,100910.59
2018-05-15T16:31:27.532Z,100911.73
2018-05-15T16:33:53.346Z,100909.97
2018-05-15T16:36:19.434Z,100908.88
2018-05-15T16:38:45.299Z,100911.80
2018-05-15T16:41:11.085Z,100908.66
2018-05-15T16:43:36.886Z,100909.38
2018-05-15T16:46:02.849Z,100908.77
2018-05-15T16:48:28.625Z,100904.97
2018-05-15T16:50:54.560Z,100907.59
2018-05-15T16:53:20.371Z,100902.84
2018-05-15T16:55:46.153Z,100907.18
2018-05-15T16:58:11.926Z,100905.38
2018-05-15T17:00:39.782Z,100904.97
2018-05-15T17:03:05.677Z,100902.36
2018-05-15T17:05:31.482Z,100899.80
2018-05-15T17:07:57.527Z,100904.83
2018-05-15T17:10:23.293Z,100903.48
2018-05-15T17:12:49.622Z,100903.72
2018-05-15T17:15:15.418Z,100897.89
2018-05-15T17:17:41.221Z,100892.83
2018-05-15T17:20:07.334Z,100897.80
2018-05-15T17:22:33.126Z,100893.06
2018-05-15T17:24:59.039Z,100893.36
2018-05-15T17:27:24.995Z,100888.11
2018-05-15T17:29:50.793Z,100893.00
2018-05-15T17:32:16.746Z,100886.55
2018-05-15T17:34:42.553Z,100887.59
2018-05-15T17:37:08.478Z,100880.84
2018-05-15T17:39:34.288Z,100878.37
2018-05-15T17:42:00.318Z,100877.11
2018-05-15T17:44:26.105Z,100873.11
2018-05-15T17:46:51.913Z,100878.71
2018-05-15T17:49:17.817Z,100880.50
2018-05-15T17:51:43.585Z,100880.11
2018-05-15T17:54:09.385Z,100881.19
2018-05-15T17:56:35.541Z,100879.17
2018-05-15T17:59:01.357Z,100873.06
2018-05-15T18:01:27.763Z,100875.11
2018-05-15T18:03:53.655Z,100879.47
2018-05-15T18:06:20.057Z,100876.57
2018-05-15T18:08:46.839Z,100879.92
2018-05-15T18:11:12.837Z,100877.77
2018-05-15T18:13:38.658Z,100881.80
2018-05-15T18:16:04.458Z,100878.46
2018-05-15T18:18:30.258Z,100876.27
2018-05-15T18:20:56.062Z,100872.95
2018-05-15T18:23:21.882Z,100878.55
2018-05-15T18:25:48.463Z,100865.69
2018-05-15T18:28:14.325Z,100865.81
2018-05-15T18:30:40.737Z,100863.20
2018-05-15T18:33:06.649Z,100864.47
2018-05-15T18:35:33.182Z,100862.39
2018-05-15T18:37:58.988Z,100858.95
2018-05-15T18:40:24.789Z,100852.88
2018-05-15T18:42:50.620Z,100859.53
2018-05-15T18:45:17.067Z,100857.40
2018-05-15T18:47:42.954Z,100854.09
2018-05-15T18:50:09.364Z,100860.80
2018-05-15T18:52:35.230Z,100857.73
2018-05-15T18:55:01.013Z,100861.05
2018-05-15T18:57:27.716Z,100863.55
2018-05-15T18:59:53.593Z,100856.36
2018-05-15T19:02:19.429Z,100860.00
2018-05-15T19:04:45.535Z,100861.72
2018-05-15T19:07:11.346Z,100864.42
2018-05-15T19:09:37.890Z,100862.48
2018-05-15T19:12:03.697Z,100864.77
2018-05-15T19:14:29.797Z,100867.64
2018-05-15T19:16:55.614Z,100865.93
2018-05-15T19:19:21.579Z,100865.44
2018-05-15T19:21:48.148Z,100865.08
2018-05-15T19:24:14.325Z,100867.37
2018-05-15T19:26:40.620Z,100871.61
2018-05-15T19:29:06.432Z,100873.16
2018-05-15T19:31:36.379Z,100882.86
2018-05-15T19:34:02.242Z,100883.58
2018-05-15T19:36:31.647Z,100884.41
2018-05-15T19:39:03.789Z,100883.46
2018-05-15T19:41:29.765Z,100882.96
2018-05-15T19:43:55.623Z,100882.00
2018-05-15T19:46:21.958Z,100883.30
2018-05-15T19:48:47.762Z,100878.80
2018-05-15T19:51:13.905Z,100880.72
2018-05-15T19:53:39.693Z,100873.72
2018-05-15T19:56:05.632Z,100870.58
2018-05-15T19:58:31.477Z,100879.31
2018-05-15T20:00:57.269Z,100883.38
2018-05-15T20:03:23.106Z,100877.19
2018-05-15T20:05:48.905Z,100879.30
2018-05-15T20:08:15.535Z,100876.28
2018-05-15T20:10:41.334Z,100881.23
2018-05-15T20:13:07.570Z,100876.28
2018-05-15T20:15:33.415Z,100869.26
2018-05-15T20:17:59.457Z,100872.16
2018-05-15T20:20:25.258Z,100876.74
2018-05-15T20:22:51.402Z,100884.78
2018-05-15T20:25:17.253Z,100878.18
2018-05-15T20:27:43.037Z,100874.39
2018-05-15T20:30:08.829Z,100880.66
2018-05-15T20:32:34.617Z,100882.27
2018-05-15T20:35:01.059Z,100880.87
2018-05-15T20:37:26.804Z,100876.52
2018-05-15T20:39:52.955Z,100885.35
2018-05-15T20:42:18.736Z,100884.37
2018-05-15T20:44:44.791Z,100880.05
2018-05-15T20:47:10.665Z,100885.53
2018-05-15T20:49:36.446Z,100882.67
2018-05-15T20:52:02.261Z,100885.31
2018-05-15T20:54:28.057Z,100889.86
2018-05-15T20:56:54.275Z,100882.66
2018-05-15T20:59:20.073Z,100880.45
2018-05-15T21:01:46.378Z,100885.56
2018-05-15T21:04:12.165Z,100891.02
2018-05-15T21:06:38.181Z,100890.39
2018-05-15T21:09:04.008Z,100886.35
2018-05-15T21:11:29.782Z,100894.84
2018-05-15T21:13:55.564Z,100895.42
2018-05-15T21:16:21.411Z,100893.64
2018-05-15T21:18:47.499Z,100899.30
2018-05-15T21:21:13.293Z,100899.66
2018-05-15T21:23:39.269Z,100899.77
2018-05-15T21:26:05.054Z,100901.00
2018-05-15T21:28:30.841Z,100903.56
2018-05-15T21:30:56.645Z,100908.98
2018-05-15T21:33:22.430Z,100906.61
2018-05-15T21:35:48.357Z,100904.11
2018-05-15T21:38:14.149Z,100899.96
2018-05-15T21:40:40.259Z,100918.41
2018-05-15T21:43:06.046Z,100911.52
2018-05-15T21:45:31.854Z,100921.18
2018-05-15T21:47:57.640Z,100907.23
2018-05-15T21:50:23.444Z,100892.91
2018-05-15T21:52:49.498Z,100923.81
2018-05-15T21:55:15.245Z,100920.11
2018-05-15T21:57:41.029Z,100921.98
2018-05-15T22:00:06.847Z,100919.98
2018-05-15T22:02:32.634Z,100921.13
2018-05-15T22:04:58.446Z,100918.67
2018-05-15T22:07:24.224Z,100924.70
2018-05-15T22:09:50.002Z,100918.77
2018-05-15T22:12:28.227Z,100912.84
2018-05-15T22:15:06.397Z,100913.50
2018-05-15T22:17:44.723Z,100917.11
2018-05-15T22:20:22.817Z,100915.92
2018-05-15T22:22:48.461Z,100903.78
2018-05-15T22:25:14.246Z,100905.70
2018-05-15T22:27:40.062Z,100908.05
2018-05-15T22:30:05.836Z,100908.59
2018-05-15T22:32:31.613Z,100900.95
2018-05-15T22:34:57.615Z,100896.42
2018-05-15T22:37:23.397Z,100892.48
2018-05-15T22:39:49.189Z,100892.55
2018-05-15T22:42:14.989Z,100898.44
2018-05-15T22:44:40.782Z,100898.83
2018-05-15T22:47:06.874Z,100901.57
2018-05-15T22:49:32.668Z,100897.41
2018-05-15T22:51:58.457Z,100897.22
2018-05-15T22:54:24.269Z,100893.08
2018-05-15T22:56:50.041Z,100889.44
2018-05-15T22:59:15.833Z,100886.64
2018-05-15T23:01:41.618Z,100882.02
2018-05-15T23:04:07.413Z,100889.80
2018-05-15T23:06:33.223Z,100879.17
2018-05-15T23:08:59.005Z,100872.34
2018-05-15T23:11:24.938Z,100869.31
2018-05-15T23:13:50.719Z,100866.00
2018-05-15T23:16:16.504Z,100870.17
2018-05-15T23:18:42.309Z,100874.70
2018-05-15T23:21:08.090Z,100884.16
2018-05-15T23:23:33.889Z,100881.71
2018-05-15T23:25:59.704Z,100885.23
2018-05-15T23:28:25.522Z,100887.16
2018-05-15T23:30:51.296Z,100885.51
2018-05-15T23:33:17.458Z,100889.48
2018-05-15T23:35:43.245Z,100887.69
2018-05-15T23:38:09.032Z,100893.68
2018-05-15T23:40:34.838Z,100891.31
2018-05-15T23:43:00.629Z,100890.77
2018-05-15T23:45:26.410Z,100894.70
2018-05-15T23:47:52.206Z,100891.88
2018-05-15T23:50:18.009Z,100886.95
2018-05-15T23:52:43.805Z,100893.94
2018-05-15T23:55:09.589Z,100893.23
2018-05-15T23:57:35.385Z,100889.36
